Terminal Aerodrome Forecast
Issued by NWS Spokane, WA

Home | Current Version | Previous Version | Text Only | Print | Product List | Glossary On
Versions: 1 2 3 4 5 6 7 8 9 10 11 12 13 14 15 16 17 18 19 20 21 22 23 24 25 26 27 28
000
FTUS46 KOTX 291134
TAFGEG
TAF
KGEG 291134Z 2912/3012 15006KT P6SM BKN090 BKN120
     FM291500 19010KT P6SM SCT050 BKN150
     FM291900 22012G21KT P6SM VCSH SCT040 BKN060
     FM292300 24017G26KT P6SM SCT060
     FM300300 24010KT P6SM FEW060
     FM300900 19008KT P6SM FEW080=

USA.gov is the U.S. government's official web portal to all federal, state and local government web resources and services.